createdAt,value
2023-10-13T00:03:32.389Z,100.00
2023-10-13T00:08:38.144Z,100.00
2023-10-13T00:13:50.790Z,100.00
2023-10-13T00:18:58.816Z,100.00
2023-10-13T00:24:07.015Z,100.00
2023-10-13T00:29:19.956Z,100.00
2023-10-13T00:34:29.472Z,100.00
2023-10-13T00:39:36.845Z,100.00
2023-10-13T00:44:43.376Z,100.00
2023-10-13T00:49:49.230Z,100.00
2023-10-13T00:54:52.288Z,100.00
2023-10-13T00:59:56.340Z,100.00
2023-10-13T01:04:59.322Z,100.00
2023-10-13T01:10:05.717Z,100.00
2023-10-13T01:15:12.224Z,100.00
2023-10-13T01:20:22.844Z,100.00
2023-10-13T01:25:29.231Z,100.00
2023-10-13T01:30:32.766Z,100.00
2023-10-13T01:35:48.622Z,100.00
2023-10-13T01:40:53.016Z,100.00
2023-10-13T01:45:56.106Z,100.00
2023-10-13T01:51:01.394Z,100.00
2023-10-13T01:56:12.405Z,100.00
2023-10-13T02:01:27.522Z,100.00
2023-10-13T02:06:35.182Z,100.00
2023-10-13T02:11:40.342Z,100.00
2023-10-13T02:16:43.295Z,100.00
2023-10-13T02:21:46.644Z,100.00
2023-10-13T02:26:49.709Z,100.00
2023-10-13T02:31:56.379Z,100.00
2023-10-13T02:36:59.507Z,100.00
2023-10-13T02:42:02.460Z,100.00
2023-10-13T02:47:14.934Z,100.00
2023-10-13T02:52:18.164Z,100.00
2023-10-13T02:57:22.788Z,100.00
2023-10-13T03:02:28.675Z,100.00
2023-10-13T03:07:32.196Z,100.00
2023-10-13T03:12:35.443Z,100.00
2023-10-13T03:17:42.116Z,100.00
2023-10-13T03:22:48.315Z,100.00
2023-10-13T03:27:54.450Z,100.00
2023-10-13T03:32:57.871Z,100.00
2023-10-13T03:38:00.833Z,100.00
2023-10-13T03:43:08.318Z,100.00
2023-10-13T03:48:30.010Z,100.00
2023-10-13T03:53:38.128Z,100.00
2023-10-13T03:58:46.799Z,100.00
2023-10-13T04:04:04.604Z,100.00
2023-10-13T04:09:30.966Z,100.00
2023-10-13T04:14:57.788Z,100.00
2023-10-13T04:20:07.470Z,100.00
2023-10-13T04:25:30.690Z,100.00
2023-10-13T04:30:53.796Z,100.00
2023-10-13T04:36:00.416Z,100.00
2023-10-13T04:41:11.374Z,100.00
2023-10-13T04:46:36.787Z,100.00
2023-10-13T04:52:00.106Z,100.00
2023-10-13T04:57:22.089Z,100.00
2023-10-13T05:02:37.462Z,100.00
2023-10-13T05:08:02.621Z,100.00
2023-10-13T05:13:24.104Z,100.00
2023-10-13T05:18:45.637Z,100.00
2023-10-13T05:24:07.397Z,100.00
2023-10-13T05:29:29.622Z,100.00
2023-10-13T05:34:51.314Z,100.00
2023-10-13T05:40:12.883Z,100.00
2023-10-13T05:45:18.642Z,100.00
2023-10-13T05:50:21.715Z,100.00
2023-10-13T05:55:48.749Z,100.00
2023-10-13T06:01:11.148Z,100.00
2023-10-13T06:06:52.689Z,100.00
2023-10-13T06:12:14.573Z,100.00
2023-10-13T06:17:49.874Z,100.00
2023-10-13T06:23:16.244Z,100.00
2023-10-13T06:28:38.421Z,100.00
2023-10-13T06:33:46.727Z,100.00
2023-10-13T06:38:57.105Z,100.00
2023-10-13T06:44:00.768Z,100.00
2023-10-13T06:49:04.147Z,100.00
2023-10-13T06:54:13.902Z,100.00
2023-10-13T06:59:17.417Z,100.00
2023-10-13T07:04:23.276Z,100.00
2023-10-13T07:09:35.480Z,100.00
2023-10-13T07:14:38.489Z,100.00
2023-10-13T07:19:54.517Z,100.00
2023-10-13T07:24:59.410Z,100.00
2023-10-13T07:30:15.535Z,100.00
2023-10-13T07:35:27.769Z,100.00
2023-10-13T07:40:30.752Z,100.00
2023-10-13T07:45:39.793Z,100.00
2023-10-13T07:50:42.856Z,100.00
2023-10-13T07:55:57.149Z,100.00
2023-10-13T08:01:09.975Z,100.00
2023-10-13T08:06:20.661Z,100.00
2023-10-13T08:11:24.710Z,100.00
2023-10-13T08:16:46.759Z,100.00
2023-10-13T08:21:53.401Z,100.00
2023-10-13T08:27:15.957Z,100.00
2023-10-13T08:32:28.068Z,100.00
2023-10-13T08:37:47.950Z,100.00
2023-10-13T08:42:51.181Z,100.00
2023-10-13T08:48:09.604Z,100.00
2023-10-13T08:53:27.814Z,100.00
2023-10-13T08:58:51.994Z,100.00
2023-10-13T09:03:55.985Z,100.00
2023-10-13T09:09:09.194Z,100.00
2023-10-13T09:14:34.822Z,100.00
2023-10-13T09:19:59.082Z,100.00
2023-10-13T09:25:04.168Z,100.00
2023-10-13T09:30:24.017Z,100.00
2023-10-13T09:35:28.757Z,100.00
2023-10-13T09:40:39.353Z,100.00
2023-10-13T09:46:03.570Z,100.00
2023-10-13T09:51:11.139Z,100.00
2023-10-13T09:56:28.275Z,100.00
2023-10-13T10:01:33.218Z,100.00
2023-10-13T10:06:41.893Z,100.00
2023-10-13T10:12:19.941Z,99.61
2023-10-13T10:17:23.218Z,99.32
2023-10-13T10:22:38.023Z,99.09
2023-10-13T10:27:42.448Z,98.08
2023-10-13T10:32:50.164Z,97.28
2023-10-13T10:37:54.120Z,97.77
2023-10-13T10:42:57.144Z,96.07
2023-10-13T10:48:00.250Z,94.97
2023-10-13T10:53:10.141Z,95.03
2023-10-13T10:58:30.109Z,93.64
2023-10-13T11:03:39.356Z,92.72
2023-10-13T11:08:45.025Z,92.14
2023-10-13T11:13:55.795Z,89.98
2023-10-13T11:19:06.683Z,91.27
2023-10-13T11:24:10.224Z,89.95
2023-10-13T11:29:13.414Z,87.59
2023-10-13T11:34:17.921Z,87.97
2023-10-13T11:39:26.153Z,89.08
2023-10-13T11:44:34.801Z,89.43
2023-10-13T11:49:38.678Z,89.20
2023-10-13T11:54:43.275Z,90.07
2023-10-13T11:59:54.482Z,90.71
2023-10-13T12:04:58.867Z,90.27
2023-10-13T12:10:03.791Z,90.35
2023-10-13T12:15:10.955Z,90.83
2023-10-13T12:20:19.867Z,91.44
2023-10-13T12:25:28.946Z,91.46
2023-10-13T12:30:50.315Z,91.10
2023-10-13T12:36:16.053Z,91.06
2023-10-13T12:41:39.703Z,91.47
2023-10-13T12:47:02.317Z,91.59
2023-10-13T12:52:06.529Z,91.50
2023-10-13T12:57:10.705Z,91.57
2023-10-13T13:02:17.119Z,92.04
2023-10-13T13:07:20.226Z,92.29
2023-10-13T13:12:23.090Z,92.76
2023-10-13T13:17:26.097Z,93.45
2023-10-13T13:22:29.246Z,93.78
2023-10-13T13:27:32.242Z,94.24
2023-10-13T13:37:43.831Z,95.14
2023-10-13T13:42:47.934Z,95.01
2023-10-13T13:47:59.511Z,95.29
2023-10-13T13:53:02.561Z,96.17
2023-10-13T13:58:09.221Z,96.71
2023-10-13T14:03:32.160Z,97.09
2023-10-13T14:08:36.060Z,97.59
2023-10-13T14:13:50.544Z,98.01
2023-10-13T14:18:54.179Z,98.87
2023-10-13T14:23:57.176Z,99.44
2023-10-13T14:29:03.135Z,99.79
2023-10-13T14:34:08.029Z,99.99
2023-10-13T14:39:11.338Z,100.00
2023-10-13T14:44:15.356Z,100.00
2023-10-13T14:49:20.116Z,100.00
2023-10-13T14:54:34.270Z,100.00
2023-10-13T14:59:40.050Z,100.00
2023-10-13T15:04:43.816Z,100.00
2023-10-13T15:09:46.865Z,100.00
2023-10-13T15:14:49.767Z,100.00
2023-10-13T15:19:52.677Z,100.00
2023-10-13T15:25:10.880Z,100.00
2023-10-13T15:30:25.043Z,100.00
2023-10-13T15:35:29.898Z,100.00
2023-10-13T15:40:32.832Z,100.00
2023-10-13T15:45:43.975Z,100.00
2023-10-13T15:50:51.192Z,100.00
2023-10-13T15:55:55.118Z,100.00
2023-10-13T16:00:58.152Z,100.00
2023-10-13T16:06:11.660Z,100.00
2023-10-13T16:11:15.299Z,100.00
2023-10-13T16:16:25.968Z,100.00
2023-10-13T16:21:29.042Z,100.00
2023-10-13T16:26:33.166Z,100.00
2023-10-13T16:31:36.145Z,100.00
2023-10-13T16:36:39.014Z,100.00
2023-10-13T16:41:46.059Z,100.00
2023-10-13T16:46:50.345Z,100.00
2023-10-13T16:51:54.109Z,100.00
2023-10-13T16:56:57.306Z,100.00
2023-10-13T17:02:02.202Z,100.00
2023-10-13T17:07:05.275Z,100.00
2023-10-13T17:12:11.468Z,100.00
2023-10-13T17:17:14.414Z,100.00
2023-10-13T17:22:17.972Z,100.00
2023-10-13T17:27:20.954Z,100.00
2023-10-13T17:32:24.357Z,100.00
2023-10-13T17:37:30.785Z,100.00
2023-10-13T17:42:36.743Z,100.00
2023-10-13T17:47:40.126Z,100.00
2023-10-13T17:52:43.536Z,100.00
2023-10-13T17:57:49.363Z,100.00
2023-10-13T18:02:58.195Z,100.00
2023-10-13T18:08:01.159Z,100.00
2023-10-13T18:13:04.373Z,100.00
2023-10-13T18:18:10.139Z,100.00
2023-10-13T18:23:13.279Z,100.00
2023-10-13T18:28:16.245Z,100.00
2023-10-13T18:33:21.292Z,100.00
2023-10-13T18:38:26.940Z,100.00
2023-10-13T18:43:29.888Z,100.00
2023-10-13T18:48:35.518Z,100.00
2023-10-13T18:53:41.863Z,100.00
2023-10-13T18:58:54.962Z,100.00
2023-10-13T19:04:04.443Z,100.00
2023-10-13T19:09:07.832Z,100.00
2023-10-13T19:14:13.700Z,100.00
2023-10-13T19:19:17.499Z,100.00
2023-10-13T19:24:21.040Z,100.00
2023-10-13T19:29:24.466Z,100.00
2023-10-13T19:34:27.412Z,100.00
2023-10-13T19:39:30.315Z,100.00
2023-10-13T19:44:34.295Z,100.00
2023-10-13T19:49:38.943Z,100.00
2023-10-13T19:54:41.875Z,100.00
2023-10-13T19:59:44.866Z,100.00
2023-10-13T20:04:47.861Z,100.00
2023-10-13T20:09:51.084Z,100.00
2023-10-13T20:14:55.198Z,100.00
2023-10-13T20:20:01.407Z,100.00
2023-10-13T20:25:06.848Z,100.00
2023-10-13T20:30:11.755Z,100.00
2023-10-13T20:35:23.135Z,100.00
2023-10-13T20:40:26.248Z,100.00
2023-10-13T20:45:29.247Z,100.00
2023-10-13T20:50:32.208Z,100.00
2023-10-13T20:55:38.878Z,100.00
2023-10-13T21:00:45.025Z,100.00
2023-10-13T21:05:49.797Z,100.00
2023-10-13T21:10:54.196Z,100.00
2023-10-13T21:15:58.271Z,100.00
2023-10-13T21:21:13.124Z,100.00
2023-10-13T21:26:24.001Z,100.00
2023-10-13T21:31:28.153Z,100.00
2023-10-13T21:36:31.137Z,100.00
2023-10-13T21:41:40.307Z,100.00
2023-10-13T21:46:46.020Z,100.00
2023-10-13T21:51:49.063Z,100.00
2023-10-13T21:56:52.012Z,100.00
2023-10-13T22:01:55.042Z,100.00
2023-10-13T22:07:01.542Z,100.00
2023-10-13T22:12:07.057Z,100.00
2023-10-13T22:17:11.012Z,100.00
2023-10-13T22:22:14.699Z,100.00
2023-10-13T22:27:18.955Z,100.00
2023-10-13T22:32:27.677Z,100.00
2023-10-13T22:37:30.785Z,100.00
2023-10-13T22:42:33.771Z,100.00
2023-10-13T22:47:36.673Z,100.00
2023-10-13T22:52:44.875Z,100.00
2023-10-13T22:57:49.532Z,100.00
2023-10-13T23:02:52.699Z,100.00
2023-10-13T23:08:20.998Z,100.00
2023-10-13T23:13:23.924Z,100.00
2023-10-13T23:18:29.645Z,100.00
2023-10-13T23:23:32.803Z,100.00
2023-10-13T23:28:37.352Z,100.00
2023-10-13T23:33:40.644Z,100.00
2023-10-13T23:38:56.109Z,100.00
2023-10-13T23:44:14.247Z,100.00
2023-10-13T23:49:20.520Z,100.00
2023-10-13T23:54:23.603Z,100.00
2023-10-13T23:59:29.435Z,100.00
